KCUH/CUH METAR and TAF weather

Enter ICAO airport designator
Station Type Date Time Source
KCUH METAR 2020/01/18 21:35 UTC NOAA

KCUH 182135Z AUTO 02008KT 10SM CLR 08/M06 A3040 RMK AO2 T00811059


Station Type Date Time Source
KCUH Decoded METAR 2020/01/18 21:35 UTC NOAA

Cushing, Cushing Municipal Airport, OK, United States (KCUH) 35-56-59N 096-46-22W
Jan 18, 2020 - 04:35 PM EST / 2020.01.18 2135 UTC
Wind: from the NNE (020 degrees) at 9 MPH (8 KT):0
Visibility: 10 mile(s):0
Sky conditions: clear
Temperature: 46.6 F (8.1 C)
Dew Point: 21.4 F (-5.9 C)
Relative Humidity: 36%
Pressure (altimeter): 30.4 in. Hg (1029 hPa)
ob: KCUH 182135Z AUTO 02008KT 10SM CLR 08/M06 A3040 RMK AO2 T00811059
cycle: 21

Station Type Date Time Source
KCUH TAF UTC NOAA

Error!

Example: see airport list